createdAt,value
2019-05-15T00:00:23.811Z,5.56
2019-05-15T00:01:23.835Z,5.53
2019-05-15T00:02:23.864Z,5.56
2019-05-15T00:03:23.914Z,5.57
2019-05-15T00:04:23.949Z,5.55
2019-05-15T00:05:24.014Z,5.59
2019-05-15T00:06:24.042Z,5.66
2019-05-15T00:07:24.082Z,5.59
2019-05-15T00:08:24.195Z,5.71
2019-05-15T00:09:24.173Z,5.68
2019-05-15T00:10:24.227Z,5.71
2019-05-15T00:11:24.250Z,5.75
2019-05-15T00:12:24.297Z,5.78
2019-05-15T00:13:24.343Z,5.71
2019-05-15T00:14:24.387Z,5.88
2019-05-15T00:15:24.529Z,5.82
2019-05-15T00:16:24.464Z,5.89
2019-05-15T00:17:24.507Z,6.00
2019-05-15T00:18:24.558Z,6.01
2019-05-15T00:19:24.596Z,6.13
2019-05-15T00:20:24.663Z,6.16
2019-05-15T00:21:24.680Z,6.22
2019-05-15T00:22:24.724Z,6.32
2019-05-15T00:23:24.772Z,6.32
2019-05-15T00:24:24.813Z,6.36
2019-05-15T00:25:24.883Z,6.32
2019-05-15T00:26:24.891Z,6.40
2019-05-15T00:27:24.946Z,6.46
2019-05-15T00:28:24.977Z,6.43
2019-05-15T00:29:25.021Z,6.53
2019-05-15T00:30:25.085Z,6.53
2019-05-15T00:31:25.147Z,6.53
2019-05-15T00:32:25.159Z,6.44
2019-05-15T00:33:25.191Z,6.50
2019-05-15T00:34:25.236Z,6.44
2019-05-15T00:35:27.923Z,6.43
2019-05-15T00:36:25.342Z,6.46
2019-05-15T00:37:25.368Z,6.47
2019-05-15T00:38:25.417Z,6.53
2019-05-15T00:39:25.480Z,6.53
2019-05-15T00:40:25.502Z,6.43
2019-05-15T00:41:27.814Z,6.40
2019-05-15T00:42:25.581Z,6.47
2019-05-15T00:43:25.622Z,6.36
2019-05-15T00:44:27.907Z,6.41
2019-05-15T00:45:27.773Z,6.35
2019-05-15T00:46:25.770Z,6.35
2019-05-15T00:47:25.794Z,6.35
2019-05-15T00:48:25.844Z,6.38
2019-05-15T00:49:25.881Z,6.48
2019-05-15T00:50:25.922Z,6.44
2019-05-15T00:51:28.286Z,6.50
2019-05-15T00:52:28.135Z,6.51
2019-05-15T00:53:28.110Z,6.41
2019-05-15T00:54:28.114Z,6.50
2019-05-15T00:55:28.330Z,6.43
2019-05-15T00:56:28.305Z,6.32
2019-05-15T00:57:28.226Z,6.36
2019-05-15T00:58:28.152Z,6.33
2019-05-15T00:59:29.736Z,6.32
2019-05-15T01:00:28.172Z,6.33
2019-05-15T01:01:28.505Z,6.35
2019-05-15T01:02:28.537Z,6.35
2019-05-15T01:03:27.913Z,6.36
2019-05-15T01:04:28.035Z,6.32
2019-05-15T01:05:28.012Z,6.28
2019-05-15T01:06:28.498Z,6.26
2019-05-15T01:07:28.163Z,6.13
2019-05-15T01:08:28.508Z,6.10
2019-05-15T01:09:29.066Z,6.13
2019-05-15T01:10:28.708Z,6.16
2019-05-15T01:11:28.448Z,6.06
2019-05-15T01:12:29.041Z,6.11
2019-05-15T01:13:28.191Z,6.06
2019-05-15T01:14:27.857Z,6.13
2019-05-15T01:15:28.926Z,6.03
2019-05-15T01:16:28.136Z,6.03
2019-05-15T01:17:29.012Z,6.18
2019-05-15T01:18:29.105Z,6.09
2019-05-15T01:19:28.763Z,6.22
2019-05-15T01:20:28.553Z,6.30
2019-05-15T01:21:27.897Z,6.30
2019-05-15T01:22:28.663Z,6.29
2019-05-15T01:23:28.206Z,6.32
2019-05-15T01:24:28.278Z,6.29
2019-05-15T01:25:28.076Z,6.29
2019-05-15T01:26:28.251Z,6.29
2019-05-15T01:27:29.185Z,6.29
2019-05-15T01:28:28.928Z,6.33
2019-05-15T01:29:40.511Z,6.28
2019-05-15T01:30:28.615Z,6.19
2019-05-15T01:31:28.531Z,6.18
2019-05-15T01:32:28.390Z,6.09
2019-05-15T01:33:28.317Z,6.13
2019-05-15T01:34:29.384Z,6.03
2019-05-15T01:35:28.728Z,6.03
2019-05-15T01:36:28.810Z,6.04
2019-05-15T01:37:28.202Z,6.09
2019-05-15T01:38:28.132Z,6.06
2019-05-15T01:39:29.092Z,6.07
2019-05-15T01:40:28.885Z,5.96
2019-05-15T01:41:28.268Z,6.04
2019-05-15T01:42:28.162Z,6.09
2019-05-15T01:43:29.087Z,6.00
2019-05-15T01:44:28.736Z,6.16
2019-05-15T01:45:28.660Z,6.07
2019-05-15T01:46:28.682Z,6.04
2019-05-15T01:47:28.370Z,6.09
2019-05-15T01:48:28.457Z,6.09
2019-05-15T01:49:28.453Z,6.07
2019-05-15T01:50:29.243Z,6.09
2019-05-15T01:51:28.714Z,6.06
2019-05-15T01:52:28.582Z,6.09
2019-05-15T01:53:29.112Z,6.13
2019-05-15T01:54:29.034Z,6.09
2019-05-15T01:55:28.708Z,6.13
2019-05-15T01:56:29.306Z,6.16
2019-05-15T01:57:28.885Z,6.13
2019-05-15T01:58:28.906Z,6.11
2019-05-15T01:59:28.896Z,6.10
2019-05-15T02:00:28.923Z,6.07
2019-05-15T02:01:28.964Z,6.11
2019-05-15T02:02:29.019Z,6.11
2019-05-15T02:03:29.158Z,6.07
2019-05-15T02:04:29.162Z,6.11
2019-05-15T02:05:29.140Z,6.14
2019-05-15T02:06:29.188Z,6.16
2019-05-15T02:07:29.220Z,6.16
2019-05-15T02:08:29.269Z,6.13
2019-05-15T02:09:29.328Z,6.07
2019-05-15T02:10:29.373Z,5.98
2019-05-15T02:11:29.395Z,6.09
2019-05-15T02:12:29.435Z,6.10
2019-05-15T02:13:29.498Z,6.04
2019-05-15T02:14:29.522Z,6.11
2019-05-15T02:15:29.577Z,6.10
2019-05-15T02:16:29.606Z,6.11
2019-05-15T02:17:29.650Z,6.07
2019-05-15T02:18:29.731Z,6.10
2019-05-15T02:19:29.794Z,6.14
2019-05-15T02:20:29.780Z,6.30
2019-05-15T02:21:29.823Z,6.29
2019-05-15T02:22:29.873Z,6.25
2019-05-15T02:23:29.907Z,6.22
2019-05-15T02:24:29.976Z,6.28
2019-05-15T02:25:29.993Z,6.19
2019-05-15T02:26:30.037Z,6.30
2019-05-15T02:27:30.086Z,6.35
2019-05-15T02:28:30.123Z,6.40
2019-05-15T02:29:30.194Z,6.38
2019-05-15T02:30:34.125Z,6.40
2019-05-15T02:31:30.551Z,6.29
2019-05-15T02:32:30.414Z,6.38
2019-05-15T02:33:30.351Z,6.36
2019-05-15T02:34:30.497Z,6.35
2019-05-15T02:35:30.448Z,6.28
2019-05-15T02:36:30.469Z,6.29
2019-05-15T02:37:30.508Z,6.26
2019-05-15T02:38:30.562Z,6.32
2019-05-15T02:39:30.616Z,6.21
2019-05-15T02:40:30.653Z,6.32
2019-05-15T02:41:30.680Z,6.29
2019-05-15T02:42:30.724Z,6.25
2019-05-15T02:43:30.764Z,6.22
2019-05-15T02:44:30.859Z,6.22
2019-05-15T02:45:30.883Z,6.19
2019-05-15T02:46:30.894Z,6.29
2019-05-15T02:47:30.943Z,6.26
2019-05-15T02:48:30.979Z,6.30
2019-05-15T02:49:31.047Z,6.26
2019-05-15T02:50:31.160Z,6.25
2019-05-15T02:51:31.158Z,6.28
2019-05-15T02:52:31.149Z,6.33
2019-05-15T02:53:31.205Z,6.26
2019-05-15T02:54:31.242Z,6.22
2019-05-15T02:55:31.304Z,6.26
2019-05-15T02:56:31.320Z,6.30
2019-05-15T02:57:31.364Z,6.26
2019-05-15T02:58:31.437Z,6.22
2019-05-15T02:59:31.448Z,6.22
2019-05-15T03:00:41.757Z,6.22
2019-05-15T03:01:31.549Z,6.32
2019-05-15T03:02:31.579Z,6.25
2019-05-15T03:03:31.625Z,6.22
2019-05-15T03:04:31.666Z,6.26
2019-05-15T03:05:31.723Z,6.18
2019-05-15T03:06:31.857Z,6.25
2019-05-15T03:07:31.799Z,6.22
2019-05-15T03:08:31.835Z,6.13
2019-05-15T03:09:31.881Z,6.16
2019-05-15T03:10:32.005Z,6.09
2019-05-15T03:11:31.973Z,6.14
2019-05-15T03:12:32.012Z,6.11
2019-05-15T03:13:32.065Z,6.13
2019-05-15T03:14:32.095Z,6.09
2019-05-15T03:15:32.157Z,6.14
2019-05-15T03:16:32.203Z,6.13
2019-05-15T03:17:32.252Z,6.10
2019-05-15T03:18:32.275Z,6.11
2019-05-15T03:19:32.306Z,6.25
2019-05-15T03:20:32.345Z,6.22
2019-05-15T03:21:32.414Z,6.26
2019-05-15T03:22:32.432Z,6.26
2019-05-15T03:23:32.476Z,6.35
2019-05-15T03:24:32.521Z,6.33
2019-05-15T03:25:32.568Z,6.36
2019-05-15T03:26:32.642Z,6.33
2019-05-15T03:27:34.776Z,6.38
2019-05-15T03:28:32.693Z,6.38
2019-05-15T03:29:32.735Z,6.40
2019-05-15T03:31:04.536Z,6.46
2019-05-15T03:31:48.831Z,6.41
2019-05-15T03:32:42.508Z,6.46
2019-05-15T03:33:36.198Z,6.51
2019-05-15T03:34:38.008Z,6.46
2019-05-15T03:35:33.467Z,6.50
2019-05-15T03:36:33.058Z,6.58
2019-05-15T03:37:34.116Z,6.65
2019-05-15T03:38:33.122Z,6.54
2019-05-15T03:39:33.159Z,6.58
2019-05-15T03:40:33.210Z,6.61
2019-05-15T03:41:33.268Z,6.54
2019-05-15T03:42:33.291Z,6.59
2019-05-15T03:43:33.343Z,6.66
2019-05-15T03:44:33.379Z,6.59
2019-05-15T03:45:33.418Z,6.63
2019-05-15T03:46:33.510Z,6.59
2019-05-15T03:47:33.504Z,6.65
2019-05-15T03:48:33.548Z,6.65
2019-05-15T03:49:33.591Z,6.73
2019-05-15T03:50:33.640Z,6.80
2019-05-15T03:51:33.700Z,6.79
2019-05-15T03:52:33.742Z,6.76
2019-05-15T03:53:33.771Z,6.77
2019-05-15T03:54:33.806Z,6.72
2019-05-15T03:55:33.854Z,6.68
2019-05-15T03:56:33.895Z,6.72
2019-05-15T03:57:33.959Z,6.76
2019-05-15T03:58:33.980Z,6.68
2019-05-15T03:59:34.021Z,6.73
2019-05-15T04:00:34.070Z,6.72
2019-05-15T04:01:39.771Z,6.84
2019-05-15T04:02:34.177Z,6.84
2019-05-15T04:03:34.201Z,6.79
2019-05-15T04:04:34.239Z,6.86
2019-05-15T04:05:34.283Z,6.76
2019-05-15T04:06:34.331Z,6.83
2019-05-15T04:07:34.392Z,6.83
2019-05-15T04:08:34.408Z,6.80
2019-05-15T04:09:34.452Z,6.87
2019-05-15T04:10:34.504Z,6.84
2019-05-15T04:11:34.558Z,6.79
2019-05-15T04:12:34.602Z,6.84
2019-05-15T04:13:34.663Z,6.80
2019-05-15T04:14:34.668Z,6.79
2019-05-15T04:15:34.746Z,6.80
2019-05-15T04:16:34.759Z,6.80
2019-05-15T04:17:34.802Z,6.80
2019-05-15T04:18:34.869Z,6.79
2019-05-15T04:19:34.901Z,6.79
2019-05-15T04:20:34.940Z,6.79
2019-05-15T04:21:34.981Z,6.77
2019-05-15T04:22:35.047Z,6.80
2019-05-15T04:23:35.060Z,6.79
2019-05-15T04:24:35.111Z,6.77
2019-05-15T04:25:35.149Z,6.90
2019-05-15T04:26:35.190Z,6.90
2019-05-15T04:27:35.258Z,6.79
2019-05-15T04:28:35.279Z,6.90
2019-05-15T04:29:35.322Z,6.83
2019-05-15T04:30:35.370Z,6.90
2019-05-15T04:31:50.829Z,6.90
2019-05-15T04:32:35.473Z,6.87
2019-05-15T04:33:35.515Z,6.99
2019-05-15T04:34:35.556Z,6.97
2019-05-15T04:35:35.579Z,6.95
2019-05-15T04:36:38.826Z,6.89
2019-05-15T04:37:35.675Z,6.97
2019-05-15T04:38:39.031Z,6.87
2019-05-15T04:39:35.754Z,6.95
2019-05-15T04:40:39.254Z,6.91
2019-05-15T04:41:38.990Z,6.89
2019-05-15T04:42:39.392Z,6.91
2019-05-15T04:43:41.446Z,6.94
2019-05-15T04:44:39.227Z,6.77
2019-05-15T04:45:38.991Z,6.89
2019-05-15T04:46:38.970Z,6.81
2019-05-15T04:47:39.273Z,6.86
2019-05-15T04:48:39.581Z,6.79
2019-05-15T04:49:39.187Z,6.80
2019-05-15T04:50:39.550Z,6.76
2019-05-15T04:51:38.817Z,6.72
2019-05-15T04:52:42.486Z,6.73
2019-05-15T04:53:39.513Z,6.76
2019-05-15T04:54:39.905Z,6.76
2019-05-15T04:55:39.903Z,6.76
2019-05-15T04:56:39.659Z,6.71
2019-05-15T04:57:39.525Z,6.68
2019-05-15T04:58:39.334Z,6.76
2019-05-15T04:59:39.037Z,6.72
2019-05-15T05:00:39.816Z,6.73
2019-05-15T05:01:39.867Z,6.79
2019-05-15T05:02:39.476Z,6.77
2019-05-15T05:03:39.345Z,6.90
2019-05-15T05:04:38.725Z,6.87
2019-05-15T05:05:38.737Z,6.90
2019-05-15T05:06:38.732Z,6.90
2019-05-15T05:07:39.036Z,6.97
2019-05-15T05:08:39.603Z,6.94
2019-05-15T05:09:38.985Z,6.87
2019-05-15T05:10:39.363Z,6.98
2019-05-15T05:11:38.285Z,7.02
2019-05-15T05:12:40.963Z,6.99
2019-05-15T05:13:39.265Z,7.01
2019-05-15T05:14:39.144Z,7.04
2019-05-15T05:15:38.949Z,7.04
2019-05-15T05:16:39.279Z,7.09
2019-05-15T05:17:39.301Z,7.15
2019-05-15T05:18:41.090Z,7.17
2019-05-15T05:19:40.094Z,7.13
2019-05-15T05:20:38.206Z,7.09
2019-05-15T05:21:38.591Z,7.09
2019-05-15T05:22:39.230Z,7.15
2019-05-15T05:23:37.799Z,7.15
2019-05-15T05:24:38.522Z,7.15
2019-05-15T05:25:38.781Z,7.16
2019-05-15T05:26:38.361Z,7.23
2019-05-15T05:27:38.288Z,7.19
2019-05-15T05:28:38.084Z,7.22
2019-05-15T05:29:38.599Z,7.27
2019-05-15T05:30:38.575Z,7.37
2019-05-15T05:31:39.050Z,7.31
2019-05-15T05:32:38.891Z,7.34
2019-05-15T05:33:38.337Z,7.26
2019-05-15T05:34:39.108Z,7.35
2019-05-15T05:35:38.737Z,7.41
2019-05-15T05:36:38.654Z,7.42
2019-05-15T05:37:38.938Z,7.42
2019-05-15T05:38:38.880Z,7.47
2019-05-15T05:39:39.533Z,7.42
2019-05-15T05:40:38.602Z,7.59
2019-05-15T05:41:39.175Z,7.62
2019-05-15T05:42:39.140Z,7.59
2019-05-15T05:43:38.590Z,7.67
2019-05-15T05:44:42.460Z,7.59
2019-05-15T05:45:38.656Z,7.74
2019-05-15T05:46:39.765Z,7.66
2019-05-15T05:47:38.719Z,7.60
2019-05-15T05:48:38.763Z,7.72
2019-05-15T05:49:38.811Z,7.82
2019-05-15T05:50:38.886Z,7.79
2019-05-15T05:51:38.920Z,7.93
2019-05-15T05:52:39.266Z,8.00
2019-05-15T05:53:38.998Z,7.96
2019-05-15T05:54:39.026Z,7.99
2019-05-15T05:55:39.088Z,7.96
2019-05-15T05:56:39.120Z,7.96
2019-05-15T05:57:39.161Z,7.94
2019-05-15T05:58:39.292Z,7.94
2019-05-15T05:59:39.256Z,7.96
2019-05-15T06:00:39.437Z,7.96
2019-05-15T06:01:44.014Z,8.11
2019-05-15T06:02:46.829Z,8.17
2019-05-15T06:03:39.426Z,8.14
2019-05-15T06:04:39.466Z,8.12
2019-05-15T06:05:39.523Z,8.10
2019-05-15T06:06:39.585Z,8.30
2019-05-15T06:07:39.614Z,8.30
2019-05-15T06:08:39.647Z,8.29
2019-05-15T06:09:39.692Z,8.37
2019-05-15T06:10:39.747Z,8.45
2019-05-15T06:11:39.796Z,8.47
2019-05-15T06:12:39.825Z,8.57
2019-05-15T06:13:39.875Z,8.48
2019-05-15T06:14:39.915Z,8.47
2019-05-15T06:15:39.988Z,8.48
2019-05-15T06:16:40.029Z,8.42
2019-05-15T06:17:40.058Z,8.39
2019-05-15T06:18:40.129Z,8.45
2019-05-15T06:19:40.158Z,8.48
2019-05-15T06:20:40.192Z,8.57
2019-05-15T06:21:53.629Z,8.57
2019-05-15T06:22:40.278Z,8.69
2019-05-15T06:23:45.425Z,8.78
2019-05-15T06:24:40.364Z,8.90
2019-05-15T06:25:40.411Z,8.96
2019-05-15T06:26:40.476Z,9.04
2019-05-15T06:27:40.511Z,8.94
2019-05-15T06:28:40.551Z,9.02
2019-05-15T06:29:40.589Z,9.01
2019-05-15T06:30:40.633Z,8.97
2019-05-15T06:31:40.697Z,9.02
2019-05-15T06:32:40.741Z,8.91
2019-05-15T06:33:40.769Z,8.91
2019-05-15T06:34:40.818Z,8.91
2019-05-15T06:35:40.866Z,8.96
2019-05-15T06:36:40.943Z,9.06
2019-05-15T06:37:40.951Z,9.09
2019-05-15T06:38:41.011Z,9.18
2019-05-15T06:39:41.059Z,9.31
2019-05-15T06:40:41.103Z,9.42
2019-05-15T06:41:41.168Z,9.49
2019-05-15T06:42:41.214Z,9.56
2019-05-15T06:43:41.224Z,9.68
2019-05-15T06:44:41.277Z,9.82
2019-05-15T06:45:41.323Z,9.88
2019-05-15T06:46:41.369Z,9.99
2019-05-15T06:47:41.565Z,9.83
2019-05-15T06:48:41.465Z,9.91
2019-05-15T06:49:41.501Z,9.93
2019-05-15T06:50:41.546Z,9.91
2019-05-15T06:51:41.594Z,10.03
2019-05-15T06:52:41.657Z,10.00
2019-05-15T06:53:41.689Z,10.09
2019-05-15T06:54:41.730Z,10.18
2019-05-15T06:55:41.775Z,10.32
2019-05-15T06:56:41.822Z,10.42
2019-05-15T06:57:41.909Z,10.86
2019-05-15T06:58:41.939Z,11.01
2019-05-15T06:59:41.970Z,11.11
2019-05-15T07:00:43.009Z,11.43
2019-05-15T07:01:42.060Z,11.53
2019-05-15T07:02:42.147Z,11.61
2019-05-15T07:03:42.169Z,11.62
2019-05-15T07:04:42.191Z,11.65
2019-05-15T07:05:42.242Z,11.57
2019-05-15T07:06:42.289Z,11.39
2019-05-15T07:07:42.355Z,11.53
2019-05-15T07:08:42.408Z,11.52
2019-05-15T07:09:42.436Z,11.65
2019-05-15T07:10:42.485Z,11.57
2019-05-15T07:11:42.524Z,11.59
2019-05-15T07:12:42.572Z,11.46
2019-05-15T07:13:42.639Z,11.32
2019-05-15T07:14:42.669Z,11.36
2019-05-15T07:15:42.723Z,11.35
2019-05-15T07:16:42.756Z,11.53
2019-05-15T07:17:42.892Z,11.59
2019-05-15T07:18:42.878Z,11.82
2019-05-15T07:19:42.897Z,11.80
2019-05-15T07:20:43.504Z,11.57
2019-05-15T07:21:43.011Z,11.57
2019-05-15T07:22:43.060Z,11.47
2019-05-15T07:23:43.111Z,11.01
2019-05-15T07:24:43.137Z,10.98
2019-05-15T07:25:43.187Z,11.44
2019-05-15T07:26:43.242Z,12.09
2019-05-15T07:27:43.282Z,12.51
2019-05-15T07:28:43.351Z,12.67
2019-05-15T07:29:43.375Z,12.82
2019-05-15T07:30:43.451Z,12.66
2019-05-15T07:31:43.483Z,12.69
2019-05-15T07:32:43.517Z,12.60
2019-05-15T07:33:44.101Z,12.12
2019-05-15T07:34:43.615Z,12.12
2019-05-15T07:35:43.681Z,12.39
2019-05-15T07:36:43.720Z,12.84
2019-05-15T07:37:43.770Z,12.82
2019-05-15T07:38:43.840Z,12.42
2019-05-15T07:39:43.854Z,11.78
2019-05-15T07:40:43.904Z,11.78
2019-05-15T07:41:43.956Z,11.82
2019-05-15T07:42:44.008Z,11.93
2019-05-15T07:43:44.075Z,12.01
2019-05-15T07:44:44.102Z,12.08
2019-05-15T07:45:44.664Z,12.46
2019-05-15T07:46:44.192Z,12.20
2019-05-15T07:47:44.243Z,12.23
2019-05-15T07:48:44.307Z,12.01
2019-05-15T07:49:44.339Z,12.11
2019-05-15T07:50:44.387Z,12.78
2019-05-15T07:51:44.450Z,13.24
2019-05-15T07:52:44.492Z,13.98
2019-05-15T07:53:44.552Z,14.37
2019-05-15T07:54:44.595Z,14.68
2019-05-15T07:55:44.625Z,15.03
2019-05-15T07:56:44.681Z,14.29
2019-05-15T07:57:44.734Z,14.04
2019-05-15T07:58:44.780Z,13.76
2019-05-15T07:59:44.838Z,13.61
2019-05-15T08:00:44.866Z,13.22
2019-05-15T08:01:44.934Z,12.95
2019-05-15T08:02:44.966Z,12.92
2019-05-15T08:03:56.560Z,12.52
2019-05-15T08:04:45.079Z,12.29
2019-05-15T08:05:58.002Z,12.06
2019-05-15T08:06:45.177Z,11.85
2019-05-15T08:07:45.211Z,11.94
2019-05-15T08:08:45.256Z,12.08
2019-05-15T08:09:45.326Z,12.42
2019-05-15T08:10:45.357Z,12.51
2019-05-15T08:11:45.408Z,12.70
2019-05-15T08:12:45.526Z,13.20
2019-05-15T08:13:45.508Z,13.46
2019-05-15T08:14:47.517Z,13.17
2019-05-15T08:15:45.600Z,13.32
2019-05-15T08:16:48.352Z,13.99
2019-05-15T08:18:00.164Z,14.53
2019-05-15T08:18:45.741Z,14.94
2019-05-15T08:19:45.823Z,15.31
2019-05-15T08:20:45.856Z,15.63
2019-05-15T08:21:45.892Z,15.49
2019-05-15T08:22:46.035Z,15.60
2019-05-15T08:23:48.231Z,15.60
2019-05-15T08:24:48.271Z,15.52
2019-05-15T08:25:48.303Z,15.38
2019-05-15T08:26:48.494Z,15.15
2019-05-15T08:27:48.530Z,14.88
2019-05-15T08:28:48.510Z,14.88
2019-05-15T08:29:48.671Z,15.15
2019-05-15T08:30:48.968Z,15.23
2019-05-15T08:31:48.244Z,15.03
2019-05-15T08:32:49.198Z,14.53
2019-05-15T08:33:48.192Z,14.16
2019-05-15T08:34:48.010Z,13.98
2019-05-15T08:35:51.128Z,13.98
2019-05-15T08:36:48.176Z,13.79
2019-05-15T08:37:48.875Z,13.58
2019-05-15T08:38:48.578Z,13.61
2019-05-15T08:39:48.872Z,13.51
2019-05-15T08:40:48.858Z,13.46
2019-05-15T08:41:48.440Z,13.07
2019-05-15T08:42:54.345Z,13.14
2019-05-15T08:43:48.693Z,12.82
2019-05-15T08:44:48.995Z,12.87
2019-05-15T08:45:49.400Z,12.96
2019-05-15T08:46:48.032Z,13.14
2019-05-15T08:47:49.311Z,13.21
2019-05-15T08:48:49.116Z,13.21
2019-05-15T08:49:48.483Z,13.14
2019-05-15T08:50:48.744Z,12.99
2019-05-15T08:51:48.619Z,12.74
2019-05-15T08:52:48.722Z,12.69
2019-05-15T08:53:48.769Z,12.81
2019-05-15T08:54:48.614Z,12.78
2019-05-15T08:55:48.160Z,12.82
2019-05-15T08:56:48.467Z,12.95
2019-05-15T08:57:55.730Z,13.14
2019-05-15T08:58:48.641Z,13.11
2019-05-15T08:59:48.827Z,13.29
2019-05-15T09:00:52.227Z,13.41
2019-05-15T09:01:48.958Z,13.63
2019-05-15T09:02:48.831Z,13.96
2019-05-15T09:03:48.895Z,14.27
2019-05-15T09:04:48.701Z,14.54
2019-05-15T09:05:48.726Z,14.67
2019-05-15T09:06:49.680Z,14.93
2019-05-15T09:07:48.641Z,15.06
2019-05-15T09:08:49.124Z,14.54
2019-05-15T09:09:48.714Z,14.28
2019-05-15T09:10:50.306Z,14.25
2019-05-15T09:11:48.434Z,14.50
2019-05-15T09:12:50.373Z,14.65
2019-05-15T09:13:53.924Z,14.62
2019-05-15T09:14:48.763Z,14.56
2019-05-15T09:15:48.545Z,14.65
2019-05-15T09:16:49.112Z,14.53
2019-05-15T09:17:48.915Z,14.53
2019-05-15T09:18:48.757Z,14.52
2019-05-15T09:19:48.749Z,14.44
2019-05-15T09:20:49.482Z,14.53
2019-05-15T09:21:49.473Z,14.20
2019-05-15T09:22:49.141Z,14.39
2019-05-15T09:23:50.033Z,14.19
2019-05-15T09:24:49.145Z,14.39
2019-05-15T09:25:49.615Z,14.54
2019-05-15T09:26:49.200Z,14.56
2019-05-15T09:27:49.167Z,14.49
2019-05-15T09:28:49.548Z,14.27
2019-05-15T09:29:49.259Z,14.29
2019-05-15T09:30:49.294Z,13.83
2019-05-15T09:31:49.384Z,13.56
2019-05-15T09:32:49.437Z,13.56
2019-05-15T09:33:49.536Z,13.73
2019-05-15T09:34:54.857Z,13.99
2019-05-15T09:35:49.552Z,14.04
2019-05-15T09:36:49.596Z,14.19
2019-05-15T09:37:49.672Z,14.25
2019-05-15T09:38:49.690Z,14.19
2019-05-15T09:39:49.740Z,14.20
2019-05-15T09:40:51.054Z,14.13
2019-05-15T09:41:49.862Z,13.94
2019-05-15T09:42:49.887Z,13.77
2019-05-15T09:43:49.965Z,13.54
2019-05-15T09:44:49.993Z,13.33
2019-05-15T09:45:50.035Z,13.18
2019-05-15T09:46:50.088Z,13.36
2019-05-15T09:47:50.145Z,13.41
2019-05-15T09:48:51.952Z,13.61
2019-05-15T09:49:50.236Z,13.83
2019-05-15T09:50:50.299Z,14.12
2019-05-15T09:51:50.338Z,14.27
2019-05-15T09:52:50.454Z,14.57
2019-05-15T09:53:50.460Z,14.56
2019-05-15T09:54:50.483Z,14.94
2019-05-15T09:55:50.548Z,14.95
2019-05-15T09:56:50.580Z,14.87
2019-05-15T09:57:50.650Z,14.72
2019-05-15T09:58:50.679Z,14.74
2019-05-15T09:59:50.730Z,14.74
2019-05-15T10:00:52.706Z,14.47
2019-05-15T10:01:50.827Z,14.69
2019-05-15T10:02:50.973Z,14.65
2019-05-15T10:03:50.935Z,14.87
2019-05-15T10:05:05.376Z,15.35
2019-05-15T10:05:51.044Z,15.12
2019-05-15T10:06:51.086Z,14.99
2019-05-15T10:07:51.152Z,14.72
2019-05-15T10:08:51.199Z,14.69
2019-05-15T10:09:52.499Z,14.49
2019-05-15T10:10:51.277Z,14.28
2019-05-15T10:11:51.325Z,14.07
2019-05-15T10:12:51.397Z,14.02
2019-05-15T10:13:51.463Z,14.07
2019-05-15T10:14:51.477Z,14.16
2019-05-15T10:15:51.625Z,14.20
2019-05-15T10:16:51.622Z,14.19
2019-05-15T10:17:51.667Z,14.17
2019-05-15T10:18:51.719Z,14.24
2019-05-15T10:19:51.724Z,14.16
2019-05-15T10:20:51.791Z,14.14
2019-05-15T10:21:53.427Z,13.98
2019-05-15T10:22:54.752Z,14.10
2019-05-15T10:23:51.948Z,14.20
2019-05-15T10:24:51.972Z,14.20
2019-05-15T10:25:52.020Z,14.17
2019-05-15T10:26:52.073Z,14.07
2019-05-15T10:27:52.127Z,13.83
2019-05-15T10:28:52.200Z,13.61
2019-05-15T10:29:52.223Z,13.24
2019-05-15T10:30:52.276Z,13.06
2019-05-15T10:31:52.324Z,13.04
2019-05-15T10:32:52.372Z,13.04
2019-05-15T10:33:52.453Z,13.03
2019-05-15T10:34:52.569Z,12.89
2019-05-15T10:35:52.529Z,12.78
2019-05-15T10:36:52.568Z,12.60
2019-05-15T10:37:52.620Z,12.56
2019-05-15T10:38:52.708Z,12.42
2019-05-15T10:39:52.919Z,12.44
2019-05-15T10:41:03.833Z,12.44
2019-05-15T10:41:52.817Z,12.27
2019-05-15T10:42:52.867Z,12.27
2019-05-15T10:43:56.387Z,12.09
2019-05-15T10:44:52.958Z,12.29
2019-05-15T10:45:54.810Z,12.37
2019-05-15T10:46:53.054Z,12.42
2019-05-15T10:47:53.115Z,12.31
2019-05-15T10:48:53.198Z,12.29
2019-05-15T10:49:53.202Z,12.33
2019-05-15T10:50:53.313Z,12.38
2019-05-15T10:51:53.299Z,12.51
2019-05-15T10:52:53.381Z,12.63
2019-05-15T10:53:53.395Z,12.57
2019-05-15T10:54:53.477Z,12.67
2019-05-15T10:55:53.525Z,12.67
2019-05-15T10:56:53.540Z,12.62
2019-05-15T10:57:53.623Z,12.63
2019-05-15T10:58:53.640Z,12.51
2019-05-15T10:59:53.716Z,12.39
2019-05-15T11:00:53.739Z,12.52
2019-05-15T11:01:53.831Z,12.57
2019-05-15T11:02:53.850Z,12.59
2019-05-15T11:03:53.881Z,12.84
2019-05-15T11:04:53.951Z,12.63
2019-05-15T11:05:54.002Z,12.67
2019-05-15T11:06:54.025Z,12.81
2019-05-15T11:07:54.075Z,12.95
2019-05-15T11:08:54.174Z,12.79
2019-05-15T11:09:54.211Z,12.92
2019-05-15T11:10:54.228Z,13.17
2019-05-15T11:11:54.265Z,13.46
2019-05-15T11:12:54.317Z,13.67
2019-05-15T11:13:54.366Z,13.87
2019-05-15T11:14:54.457Z,13.81
2019-05-15T11:15:54.474Z,13.81
2019-05-15T11:16:54.519Z,13.58
2019-05-15T11:17:54.566Z,13.52
2019-05-15T11:18:54.681Z,13.47
2019-05-15T11:19:54.684Z,13.00
2019-05-15T11:20:54.734Z,13.03
2019-05-15T11:21:54.771Z,13.17
2019-05-15T11:22:54.813Z,13.36
2019-05-15T11:23:54.870Z,13.43
2019-05-15T11:24:54.936Z,13.58
2019-05-15T11:25:54.976Z,13.38
2019-05-15T11:26:56.216Z,13.27
2019-05-15T11:27:55.051Z,13.25
2019-05-15T11:28:55.110Z,13.33
2019-05-15T11:29:55.148Z,13.43
2019-05-15T11:30:55.225Z,13.24
2019-05-15T11:31:55.256Z,13.38
2019-05-15T11:32:55.308Z,13.58
2019-05-15T11:33:55.396Z,13.69
2019-05-15T11:34:58.097Z,13.58
2019-05-15T11:36:04.122Z,13.67
2019-05-15T11:36:55.505Z,13.80
2019-05-15T11:37:57.009Z,13.99
2019-05-15T11:38:55.598Z,14.38
2019-05-15T11:39:55.643Z,14.56
2019-05-15T11:40:56.100Z,14.72
2019-05-15T11:41:55.747Z,14.71
2019-05-15T11:42:55.795Z,15.02
2019-05-15T11:43:55.844Z,14.94
2019-05-15T11:44:58.320Z,14.88
2019-05-15T11:45:58.642Z,14.98
2019-05-15T11:46:58.460Z,14.88
2019-05-15T11:47:56.060Z,14.54
2019-05-15T11:48:58.592Z,14.57
2019-05-15T11:49:58.307Z,14.24
2019-05-15T11:50:56.215Z,14.24
2019-05-15T11:52:00.370Z,14.43
2019-05-15T11:52:58.599Z,14.69
2019-05-15T11:53:58.621Z,14.78
2019-05-15T11:54:58.781Z,14.64
2019-05-15T11:55:56.527Z,14.64
2019-05-15T11:56:59.429Z,14.88
2019-05-15T11:57:56.574Z,15.12
2019-05-15T11:58:56.596Z,15.36
2019-05-15T11:59:59.470Z,15.54
2019-05-15T12:00:57.972Z,15.35
2019-05-15T12:01:58.030Z,15.21
2019-05-15T12:02:58.451Z,15.33
2019-05-15T12:03:58.530Z,15.33
2019-05-15T12:04:58.426Z,15.12
2019-05-15T12:05:58.381Z,15.24
2019-05-15T12:07:02.135Z,15.48
2019-05-15T12:07:57.898Z,15.70
2019-05-15T12:08:59.120Z,15.99
2019-05-15T12:09:58.075Z,15.92
2019-05-15T12:10:59.201Z,15.49
2019-05-15T12:11:57.277Z,15.30
2019-05-15T12:12:57.308Z,15.28
2019-05-15T12:13:57.455Z,15.24
2019-05-15T12:14:57.418Z,15.33
2019-05-15T12:15:58.895Z,15.28
2019-05-15T12:17:06.968Z,15.09
2019-05-15T12:17:59.152Z,15.01
2019-05-15T12:19:08.490Z,14.95
2019-05-15T12:20:04.819Z,15.06
2019-05-15T12:20:59.526Z,14.78
2019-05-15T12:21:59.801Z,14.74
2019-05-15T12:22:59.382Z,14.93
2019-05-15T12:23:59.070Z,14.93
2019-05-15T12:25:00.581Z,14.93
2019-05-15T12:25:59.821Z,14.93
2019-05-15T12:27:11.423Z,14.61
2019-05-15T12:27:59.651Z,14.28
2019-05-15T12:28:58.997Z,14.19
2019-05-15T12:29:59.921Z,14.25
2019-05-15T12:30:59.583Z,14.19
2019-05-15T12:31:58.974Z,14.38
2019-05-15T12:33:00.346Z,14.47
2019-05-15T12:33:58.639Z,14.56
2019-05-15T12:35:00.091Z,14.49
2019-05-15T12:35:58.473Z,14.62
2019-05-15T12:36:58.557Z,14.47
2019-05-15T12:37:58.608Z,14.31
2019-05-15T12:38:58.628Z,14.49
2019-05-15T12:59:59.677Z,14.98
2019-05-15T13:00:59.730Z,15.19
2019-05-15T13:01:59.780Z,15.31
2019-05-15T13:02:59.956Z,15.54
2019-05-15T13:03:59.890Z,15.54
2019-05-15T13:04:59.938Z,15.67
2019-05-15T13:05:59.984Z,15.63
2019-05-15T13:07:12.978Z,15.54
2019-05-15T13:08:00.118Z,15.66
2019-05-15T13:09:00.142Z,15.70
2019-05-15T13:10:00.194Z,15.57
2019-05-15T13:11:00.240Z,15.72
2019-05-15T13:12:00.297Z,15.75
2019-05-15T13:13:05.139Z,16.03
2019-05-15T13:14:00.458Z,15.94
2019-05-15T13:15:00.463Z,15.89
2019-05-15T13:16:00.498Z,15.70
2019-05-15T13:17:00.549Z,15.70
2019-05-15T13:18:00.595Z,15.70
2019-05-15T13:19:00.671Z,15.64
2019-05-15T13:20:00.699Z,15.72
2019-05-15T13:21:00.764Z,15.72
2019-05-15T13:22:00.814Z,15.74
2019-05-15T13:23:00.864Z,15.46
2019-05-15T13:24:00.927Z,15.48
2019-05-15T13:25:01.096Z,15.35
2019-05-15T13:26:01.012Z,15.36